Time;durP1;ratioP1;P1;durP2;ratioP2;P2;SDS_P1;SDS_P2;PMS_P1;PMS_P2;Temp;Humidity;BMP_temperature;BMP_pressure;BME280_temperature;BME280_humidity;BME280_pressure;Samples;Min_cycle;Max_cycle;Signal;HPM_P1;HPM_P2
2023/10/17 00:00:42;;;;;;;1.60;1.30;;;18.80;80.50;;;;;;4935234;29;20048;-30
2023/10/17 00:03:11;;;;;;;1.88;1.45;;;19.50;81.00;;;;;;4935166;29;20051;-30
2023/10/17 00:05:38;;;;;;;3.22;1.48;;;;;;;;;;4935114;29;20421;-28
2023/10/17 00:08:09;;;;;;;1.80;1.40;;;19.70;65.70;;;;;;4934716;29;20052;-30
2023/10/17 00:10:37;;;;;;;1.75;1.30;;;19.30;62.80;;;;;;4935034;29;20044;-28
2023/10/17 00:15:48;;;;;;;2.90;1.52;;;19.50;80.70;;;;;;4934474;29;20058;-30
2023/10/17 00:18:18;;;;;;;1.50;1.30;;;19.00;80.60;;;;;;4934732;29;20505;-30
2023/10/17 00:20:45;;;;;;;2.78;1.58;;;19.30;80.80;;;;;;4935040;29;20051;-30
2023/10/17 00:23:15;;;;;;;2.50;1.40;;;19.10;66.60;;;;;;4934903;29;20058;-30
2023/10/17 00:25:45;;;;;;;2.05;1.48;;;18.80;80.60;;;;;;4934736;29;20058;-30
2023/10/17 00:28:14;;;;;;;1.88;1.40;;;19.10;81.10;;;;;;4934819;29;20051;-30
2023/10/17 00:30:41;;;;;;;1.50;1.20;;;20.20;71.10;;;;;;4934698;29;20048;-30
2023/10/17 00:33:10;;;;;;;3.65;1.40;;;19.30;81.20;;;;;;4935230;29;20052;-30
2023/10/17 00:35:38;;;;;;;2.15;1.40;;;19.20;74.40;;;;;;4934580;29;20075;-30
2023/10/17 00:38:08;;;;;;;2.30;1.40;;;18.90;80.70;;;;;;4933813;29;20091;-30
2023/10/17 00:40:44;;;;;;;1.70;1.15;;;19.20;63.00;;;;;;4934927;29;20132;-28
2023/10/17 00:43:12;;;;;;;2.00;1.45;;;19.60;78.10;;;;;;4933621;29;20056;-30
2023/10/17 00:45:39;;;;;;;2.20;1.40;;;18.40;80.20;;;;;;4934656;29;20549;-30
2023/10/17 00:48:08;;;;;;;1.27;1.10;;;19.20;81.20;;;;;;4934462;29;20052;-30
2023/10/17 00:50:36;;;;;;;3.33;1.40;;;17.90;64.80;;;;;;4934241;29;20044;-30
2023/10/17 00:53:05;;;;;;;2.20;1.40;;;19.10;65.90;;;;;;4934412;29;20054;-30
2023/10/17 00:55:32;;;;;;;1.45;1.27;;;19.30;80.80;;;;;;4934974;29;20058;-30
2023/10/17 00:57:59;;;;;;;1.02;0.93;;;;;;;;;;4935210;29;20055;-28
2023/10/17 01:00:35;;;;;;;1.63;1.20;;;19.20;76.70;;;;;;4934563;29;20103;-30
2023/10/17 01:03:08;;;;;;;1.90;1.23;;;20.20;81.40;;;;;;4939976;29;20469;-30
2023/10/17 01:05:42;;;;;;;2.30;1.33;;;18.80;81.00;;;;;;4934528;29;20501;-30
2023/10/17 01:08:09;;;;;;;1.40;1.20;;;19.60;81.20;;;;;;4920334;29;20062;-30
2023/10/17 01:10:37;;;;;;;1.65;1.17;;;;;;;;;;4915423;29;20101;-28
2023/10/17 01:13:05;;;;;;;1.90;1.30;;;18.90;80.60;;;;;;4915391;29;20520;-30
2023/10/17 01:15:32;;;;;;;1.75;1.30;;;19.00;62.90;;;;;;4915527;29;20103;-30
2023/10/17 01:18:04;;;;;;;1.50;1.20;;;19.60;70.90;;;;;;4915261;29;20053;-30
2023/10/17 01:20:30;;;;;;;2.45;1.42;;;19.40;81.10;;;;;;4931469;29;20060;-30
2023/10/17 01:23:00;;;;;;;2.63;1.30;;;18.50;81.10;;;;;;4934647;29;20084;-30
2023/10/17 01:25:29;;;;;;;1.90;1.17;;;18.90;63.00;;;;;;4934422;29;20059;-30
2023/10/17 01:27:57;;;;;;;2.17;1.20;;;18.80;81.20;;;;;;4933986;29;20065;-30
2023/10/17 01:30:28;;;;;;;2.05;1.30;;;19.10;81.10;;;;;;4934364;29;20107;-30
2023/10/17 01:32:56;;;;;;;1.63;1.25;;;18.50;81.10;;;;;;4934654;29;20465;-30
2023/10/17 01:35:23;;;;;;;2.58;1.35;;;19.30;81.60;;;;;;4934276;29;20051;-30
2023/10/17 01:37:52;;;;;;;2.03;1.20;;;;;;;;;;4933610;29;20100;-28
2023/10/17 01:40:26;;;;;;;1.92;1.35;;;;;;;;;;4936460;29;20098;-29
2023/10/17 01:42:56;;;;;;;1.80;1.30;;;18.50;81.20;;;;;;4937933;29;20060;-30
2023/10/17 01:45:25;;;;;;;1.88;1.30;;;18.30;81.30;;;;;;4938078;29;20059;-30
2023/10/17 01:47:52;;;;;;;1.75;1.25;;;19.20;81.30;;;;;;4937538;29;20051;-30
2023/10/17 01:50:19;;;;;;;1.63;1.40;;;;;;;;;;4937628;29;20062;-28
2023/10/17 01:52:46;;;;;;;2.08;1.30;;;18.50;81.40;;;;;;4937304;29;20051;-30
2023/10/17 01:55:15;;;;;;;1.92;1.38;;;19.30;77.90;;;;;;4936603;29;20063;-30
2023/10/17 01:57:43;;;;;;;1.88;1.30;;;19.10;78.20;;;;;;4952703;29;20051;-30
2023/10/17 02:00:23;;;;;;;1.42;1.10;;;17.70;70.70;;;;;;4937904;29;20099;-30
2023/10/17 02:02:50;;;;;;;1.60;1.23;;;18.30;81.50;;;;;;4937429;29;20130;-30
2023/10/17 02:05:18;;;;;;;1.45;1.10;;;;;;;;;;4937527;29;20047;-28
2023/10/17 02:07:45;;;;;;;1.52;1.17;;;18.50;81.50;;;;;;4937227;29;20048;-30
2023/10/17 02:10:16;;;;;;;1.50;1.20;;;19.00;76.70;;;;;;4937071;29;20501;-29
2023/10/17 02:12:43;;;;;;;1.35;1.13;;;18.40;81.60;;;;;;4937408;29;20047;-30
2023/10/17 02:15:12;;;;;;;1.83;1.27;;;19.60;73.00;;;;;;4937047;29;20480;-30
2023/10/17 02:17:39;;;;;;;1.88;1.27;;;19.00;77.50;;;;;;4937282;29;20052;-30
2023/10/17 02:20:20;;;;;;;1.25;1.10;;;19.30;66.00;;;;;;4937095;29;20047;-30
2023/10/17 02:22:49;;;;;;;1.80;1.40;;;18.80;81.40;;;;;;4937356;29;20054;-30
2023/10/17 02:25:21;;;;;;;1.63;1.10;;;18.80;65.00;;;;;;4937008;29;20052;-30
2023/10/17 02:27:48;;;;;;;1.90;1.30;;;;;;;;;;4936945;29;20138;-28
2023/10/17 02:30:17;;;;;;;1.60;1.30;;;19.20;76.10;;;;;;4936907;29;20406;-30
2023/10/17 02:32:46;;;;;;;1.60;1.15;;;;;;;;;;4936880;29;20052;-29
2023/10/17 02:35:15;;;;;;;1.90;1.20;;;18.90;81.90;;;;;;4936903;29;20048;-30
2023/10/17 02:37:44;;;;;;;1.85;1.40;;;18.80;75.30;;;;;;4936065;29;20460;-30
2023/10/17 02:40:20;;;;;;;2.50;1.40;;;18.60;74.50;;;;;;4936705;29;20056;-30
2023/10/17 02:42:47;;;;;;;1.63;1.23;;;;;;;;;;4936619;29;20083;-30
2023/10/17 02:45:14;;;;;;;3.38;1.33;;;18.80;81.80;;;;;;4936761;29;20051;-30
2023/10/17 02:47:43;;;;;;;1.63;1.20;;;18.90;71.80;;;;;;4936338;29;20056;-30
2023/10/17 02:50:22;;;;;;;2.28;1.30;;;18.40;81.60;;;;;;4936908;29;20054;-30
2023/10/17 02:52:51;;;;;;;1.98;1.30;;;18.50;68.10;;;;;;4935887;29;20473;-30
2023/10/17 02:55:23;;;;;;;1.45;1.20;;;19.20;72.60;;;;;;4936509;29;20485;-30
2023/10/17 02:57:51;;;;;;;1.80;1.20;;;19.10;81.60;;;;;;4943726;29;20051;-30
2023/10/17 03:00:22;;;;;;;2.03;1.30;;;19.00;81.60;;;;;;4936414;29;20771;-30
2023/10/17 03:02:52;;;;;;;1.95;1.30;;;18.90;63.40;;;;;;4920773;29;20127;-28
2023/10/17 03:05:19;;;;;;;1.90;1.40;;;18.90;72.50;;;;;;4921166;29;20051;-30
2023/10/17 03:07:49;;;;;;;1.45;1.30;;;18.80;81.30;;;;;;4936329;29;20062;-30
2023/10/17 03:10:23;;;;;;;1.63;1.33;;;18.40;81.50;;;;;;4936638;29;20478;-30
2023/10/17 03:12:55;;;;;;;3.55;1.55;;;19.00;71.30;;;;;;4936572;29;20087;-30
2023/10/17 03:15:23;;;;;;;1.48;1.10;;;18.70;78.30;;;;;;4936545;29;20059;-30
2023/10/17 03:17:54;;;;;;;1.40;1.30;;;19.60;64.70;;;;;;4930150;29;20123;-30
2023/10/17 03:20:21;;;;;;;2.78;1.25;;;18.70;81.30;;;;;;4917331;29;20052;-30
2023/10/17 03:22:50;;;;;;;2.45;1.23;;;;;;;;;;4917176;29;20058;-28
2023/10/17 03:25:19;;;;;;;2.08;1.40;;;19.40;82.20;;;;;;4926355;29;20461;-30
2023/10/17 03:27:49;;;;;;;1.92;1.30;;;;;;;;;;4935911;29;20130;-28
2023/10/17 03:30:19;;;;;;;2.22;1.30;;;;;;;;;;4936220;29;20051;-28
2023/10/17 03:33:02;;;;;;;1.42;1.02;;;18.70;63.50;;;;;;4936028;29;20514;-29
2023/10/17 03:35:35;;;;;;;2.00;1.40;;;18.50;81.70;;;;;;4936172;29;20062;-30
2023/10/17 03:38:02;;;;;;;2.30;1.20;;;19.10;82.10;;;;;;4935358;29;20130;-30
2023/10/17 03:40:30;;;;;;;1.70;1.30;;;18.50;81.40;;;;;;4936258;29;20052;-30
2023/10/17 03:43:00;;;;;;;3.42;1.27;;;18.30;81.60;;;;;;4935779;29;20516;-30
2023/10/17 03:45:35;;;;;;;1.85;1.30;;;18.60;81.80;;;;;;4935677;29;20135;-30
2023/10/17 03:48:12;;;;;;;1.98;1.45;;;;;;;;;;4935495;29;20056;-30
2023/10/17 03:50:58;;;;;;;1.77;1.30;;;19.50;81.90;;;;;;4934375;29;20135;-30
2023/10/17 03:53:28;;;;;;;2.90;1.38;;;17.80;81.40;;;;;;4935657;29;20453;-30
2023/10/17 03:55:55;;;;;;;1.73;1.10;;;18.00;67.40;;;;;;4937235;29;20492;-30
2023/10/17 03:58:29;;;;;;;1.52;1.10;;;18.50;81.60;;;;;;4945424;28;20118;-30
2023/10/17 04:00:57;;;;;;;2.13;1.42;;;18.80;63.50;;;;;;4935587;29;20048;-30
2023/10/17 04:03:26;;;;;;;1.55;1.20;;;20.00;82.20;;;;;;4934972;29;20051;-30
2023/10/17 04:06:02;;;;;;;1.55;1.15;;;18.90;63.50;;;;;;4935221;29;20050;-29
2023/10/17 04:08:32;;;;;;;1.83;1.27;;;18.50;81.60;;;;;;4935155;29;20126;-30
2023/10/17 04:11:17;;;;;;;1.67;1.20;;;;;;;;;;4935135;29;20050;-29
2023/10/17 04:13:45;;;;;;;1.35;1.10;;;18.90;63.50;;;;;;4935159;29;20122;-30
2023/10/17 04:16:14;;;;;;;2.22;1.20;;;19.40;67.70;;;;;;4935191;29;20087;-30
2023/10/17 04:18:42;;;;;;;1.58;1.20;;;;;;;;;;4935137;29;20573;-30
2023/10/17 04:21:26;;;;;;;1.80;1.30;;;18.60;81.30;;;;;;4934870;29;20118;-30
2023/10/17 04:23:55;;;;;;;1.75;1.35;;;;;;;;;;4935137;29;20052;-29
2023/10/17 04:26:27;;;;;;;1.75;1.25;;;18.70;79.60;;;;;;4934539;29;20123;-30
2023/10/17 04:28:55;;;;;;;1.42;1.20;;;18.10;77.20;;;;;;4935239;29;20055;-30
2023/10/17 04:31:25;;;;;;;1.85;1.30;;;19.40;65.80;;;;;;4934698;29;20070;-30
2023/10/17 04:33:56;;;;;;;2.97;1.40;;;19.00;63.30;;;;;;4934983;29;20505;-28
2023/10/17 04:36:26;;;;;;;1.45;1.15;;;20.00;81.80;;;;;;4934302;29;20048;-30
2023/10/17 04:41:48;;;;;;;2.28;1.25;;;;;;;;;;4934504;29;20073;-29
2023/10/17 04:44:15;;;;;;;1.92;1.30;;;19.10;81.50;;;;;;4934821;29;20497;-30
2023/10/17 04:46:50;;;;;;;2.00;1.25;;;18.40;72.90;;;;;;4934720;29;20410;-30
2023/10/17 04:49:21;;;;;;;1.67;1.20;;;;;;;;;;4934903;29;20417;-29
2023/10/17 04:51:52;;;;;;;1.88;1.20;;;19.20;63.20;;;;;;4934118;29;20490;-30
2023/10/17 04:54:23;;;;;;;1.30;1.20;;;;;;;;;;4934771;29;20047;-30
2023/10/17 04:57:00;;;;;;;2.25;1.40;;;19.30;81.10;;;;;;4943344;29;20050;-30
2023/10/17 04:59:51;;;;;;;1.30;1.10;;;19.60;81.50;;;;;;4953873;28;20061;-30
2023/10/17 05:02:38;;;;;;;2.05;1.30;;;;;;;;;;4915854;29;20048;-30
2023/10/17 05:08:11;;;;;;;1.38;1.08;;;18.90;78.10;;;;;;4926112;29;20048;-30
2023/10/17 06:16:54;;;;;;;1.90;1.10;;;19.20;81.00;;;;;;4928670;29;20138;-30
2023/10/17 06:19:25;;;;;;;1.48;1.17;;;19.30;73.60;;;;;;4937289;29;20130;-30
2023/10/17 06:28:26;;;;;;;1.55;1.20;;;18.70;80.90;;;;;;4905210;29;20067;-30
2023/10/17 06:30:48;;;;;;;2.15;1.30;;;19.60;81.00;;;;;;4901347;29;20520;-30
2023/10/17 06:33:21;;;;;;;1.48;1.20;;;20.10;81.60;;;;;;4922940;29;20062;-30
2023/10/17 06:35:52;;;;;;;1.60;1.10;;;;;;;;;;4937348;29;20056;-30
2023/10/17 06:38:21;;;;;;;2.00;1.20;;;19.00;80.70;;;;;;4936174;29;20050;-27
2023/10/17 06:40:52;;;;;;;1.80;1.17;;;;;;;;;;4936595;29;20100;-27
2023/10/17 06:43:28;;;;;;;2.25;1.27;;;19.40;80.80;;;;;;4937083;29;20132;-27
2023/10/17 06:45:57;;;;;;;2.05;1.30;;;19.20;77.50;;;;;;4936937;29;20047;-27
2023/10/17 06:48:32;;;;;;;2.22;1.20;;;19.10;65.40;;;;;;4936698;29;20135;-28
2023/10/17 06:54:06;;;;;;;1.58;1.00;;;;;;;;;;4878630;29;20063;-28
2023/10/17 06:56:38;;;;;;;1.60;1.30;;;20.60;76.30;;;;;;4884753;29;20135;-27
2023/10/17 06:59:14;;;;;;;1.77;1.10;;;19.70;62.90;;;;;;4897906;29;20131;-27
2023/10/17 07:01:42;;;;;;;3.08;1.23;;;19.60;80.70;;;;;;4930905;29;20075;-27
2023/10/17 07:04:11;;;;;;;2.58;1.10;;;19.60;80.70;;;;;;4936377;29;20126;-27
2023/10/17 07:06:39;;;;;;;3.90;1.20;;;19.70;80.30;;;;;;4936630;29;20052;-27
2023/10/17 07:09:16;;;;;;;2.15;1.15;;;20.70;80.70;;;;;;4932007;29;20054;-27
2023/10/17 07:11:47;;;;;;;1.90;1.23;;;19.50;80.30;;;;;;4936715;29;20051;-27
2023/10/17 07:14:24;;;;;;;1.75;1.33;;;;;;;;;;4935892;29;20122;-27
2023/10/17 07:17:01;;;;;;;1.20;1.10;;;20.20;62.50;;;;;;4935907;29;20051;-28
2023/10/17 07:22:15;;;;;;;2.33;1.40;;;;;;;;;;4935633;29;20043;-27
2023/10/17 07:24:49;;;;;;;3.80;1.05;;;20.40;79.90;;;;;;4936156;29;20059;-27
2023/10/17 07:27:33;;;;;;;1.05;0.95;;;20.60;80.20;;;;;;4933071;29;20504;-27
2023/10/17 07:30:10;;;;;;;1.50;1.20;;;21.30;79.60;;;;;;4930967;29;20050;-27
2023/10/17 07:32:48;;;;;;;1.42;1.15;;;20.40;79.90;;;;;;4935393;29;20063;-27
2023/10/17 07:35:23;;;;;;;1.27;1.05;;;;;;;;;;4934861;29;20420;-27
2023/10/17 07:37:54;;;;;;;1.70;1.10;;;20.40;77.20;;;;;;4934219;29;20048;-27
2023/10/17 07:40:32;;;;;;;3.10;1.10;;;20.10;76.90;;;;;;4930803;29;20209;-27
2023/10/17 07:43:01;;;;;;;2.03;1.30;;;20.60;61.90;;;;;;4930618;29;20052;-28
2023/10/17 07:45:37;;;;;;;2.03;1.40;;;20.60;75.50;;;;;;4934320;29;20060;-28
2023/10/17 07:48:19;;;;;;;2.80;1.30;;;22.10;68.20;;;;;;4935636;29;20055;-28
2023/10/17 07:50:47;;;;;;;2.42;1.30;;;20.80;79.30;;;;;;4935586;29;20056;-27
2023/10/17 07:53:19;;;;;;;1.75;1.10;;;;;;;;;;4936023;29;20130;-28
2023/10/17 07:55:48;;;;;;;4.63;1.45;;;21.00;70.10;;;;;;4936081;29;20498;-29
2023/10/17 07:58:17;;;;;;;1.33;1.15;;;20.20;78.50;;;;;;4947474;28;20055;-29
2023/10/17 08:00:48;;;;;;;2.92;1.15;;;20.70;76.70;;;;;;4932731;29;20043;-29
2023/10/17 08:03:18;;;;;;;1.98;1.30;;;21.40;79.40;;;;;;4922232;29;20112;-29
2023/10/17 08:06:04;;;;;;;3.30;1.23;;;20.90;72.00;;;;;;4917722;29;20054;-29
2023/10/17 08:08:34;;;;;;;1.98;1.45;;;21.00;78.50;;;;;;4933859;29;20055;-29
2023/10/17 08:11:01;;;;;;;3.30;1.17;;;21.00;73.50;;;;;;4933648;29;20063;-29
2023/10/17 08:13:28;;;;;;;2.15;1.45;;;21.20;78.50;;;;;;4934440;29;20048;-29
2023/10/17 08:15:55;;;;;;;2.13;1.45;;;;;;;;;;4934683;29;20417;-29
2023/10/17 08:18:24;;;;;;;2.40;1.35;;;20.60;60.90;;;;;;4934093;29;20091;-28
2023/10/17 08:20:59;;;;;;;1.90;1.30;;;21.10;69.90;;;;;;4935087;29;20497;-29
2023/10/17 08:23:26;;;;;;;1.80;1.20;;;21.20;78.70;;;;;;4935144;28;20055;-29
2023/10/17 08:25:59;;;;;;;4.07;1.17;;;;;;;;;;4935500;29;20052;-29
2023/10/17 08:28:37;;;;;;;2.10;1.17;;;21.30;79.20;;;;;;4933791;29;20457;-29
2023/10/17 08:31:13;;;;;;;1.52;1.20;;;21.30;78.30;;;;;;4928798;29;20111;-29
2023/10/17 08:33:47;;;;;;;2.13;1.20;;;21.20;78.30;;;;;;4951543;29;20058;-29
2023/10/17 08:36:13;;;;;;;1.60;1.20;;;21.30;78.90;;;;;;4939342;28;20417;-29
2023/10/17 08:38:40;;;;;;;1.92;1.08;;;21.00;78.80;;;;;;4934881;29;20044;-29
2023/10/17 08:41:06;;;;;;;3.13;1.20;;;20.40;73.60;;;;;;4932988;29;20405;-29
2023/10/17 08:43:36;;;;;;;1.67;1.20;;;21.40;64.70;;;;;;4931465;29;20043;-29
2023/10/17 08:46:07;;;;;;;1.92;1.20;;;20.40;77.40;;;;;;4934950;29;20568;-29
2023/10/17 08:48:35;;;;;;;1.60;1.20;;;21.50;77.70;;;;;;4918883;29;20123;-29
2023/10/17 08:51:07;;;;;;;2.33;1.25;;;21.60;77.80;;;;;;4924656;29;20054;-29
2023/10/17 08:53:34;;;;;;;2.45;1.20;;;;;;;;;;4933305;29;20048;-29
2023/10/17 08:56:02;;;;;;;1.95;1.30;;;22.40;78.00;;;;;;4934588;29;20489;-29
2023/10/17 08:58:33;;;;;;;2.72;1.10;;;;;;;;;;4934003;29;20050;-29
2023/10/17 09:01:07;;;;;;;2.17;1.40;;;22.10;70.50;;;;;;4932139;29;20052;-29
2023/10/17 09:03:35;;;;;;;1.37;1.00;;;21.40;70.50;;;;;;4934339;29;20144;-29
2023/10/17 09:06:28;;;;;;;2.70;1.30;;;22.90;78.20;;;;;;4933999;29;20580;-29
2023/10/17 09:09:17;;;;;;;2.88;1.23;;;21.20;77.90;;;;;;4931184;29;20461;-29
2023/10/17 09:12:11;;;;;;;1.73;1.00;;;23.70;61.90;;;;;;4930137;29;20047;-29
2023/10/17 09:14:38;;;;;;;1.85;0.95;;;20.90;78.30;;;;;;4931809;29;20043;-29
2023/10/17 09:17:13;;;;;;;1.80;0.95;;;21.70;78.20;;;;;;4933365;29;20071;-29
2023/10/17 09:19:40;;;;;;;;;;;21.50;60.70;;;;;;4946123;29;20054;-27
2023/10/17 09:22:10;;;;;;;1.42;1.00;;;21.40;75.20;;;;;;4933655;29;19926;-27
2023/10/17 09:24:37;;;;;;;1.35;1.00;;;21.70;78.90;;;;;;4932795;29;20051;-27
2023/10/17 09:27:09;;;;;;;3.78;1.30;;;21.40;60.90;;;;;;4933931;29;20116;-27
2023/10/17 09:29:46;;;;;;;1.38;1.00;;;21.30;60.90;;;;;;4933965;29;20406;-30
2023/10/17 09:32:13;;;;;;;2.75;1.20;;;21.50;65.40;;;;;;4934331;29;20493;-27
2023/10/17 09:34:40;;;;;;;1.42;1.15;;;21.10;77.90;;;;;;4934152;29;20425;-27
2023/10/17 09:37:13;;;;;;;1.25;0.90;;;21.30;61.10;;;;;;4933086;29;20071;-27
2023/10/17 09:39:46;;;;;;;2.67;1.13;;;;;;;;;;4931543;29;20047;-27
2023/10/17 09:42:13;;;;;;;2.28;1.08;;;21.60;62.00;;;;;;4934425;29;20074;-28
2023/10/17 09:44:40;;;;;;;3.15;1.00;;;20.90;78.10;;;;;;4934200;29;20075;-27
2023/10/17 09:47:08;;;;;;;1.75;1.20;;;21.50;68.80;;;;;;4934362;29;20054;-28
2023/10/17 09:49:37;;;;;;;1.25;1.00;;;21.00;78.60;;;;;;4934384;29;20559;-27
2023/10/17 09:52:04;;;;;;;3.33;1.13;;;20.60;78.00;;;;;;4934046;29;20055;-29
2023/10/17 09:54:36;;;;;;;1.40;1.05;;;21.10;61.30;;;;;;4934286;29;20428;-29
2023/10/17 09:57:03;;;;;;;2.08;1.00;;;21.00;78.20;;;;;;4944969;29;20043;-29
2023/10/17 09:59:34;;;;;;;2.97;1.10;;;20.60;78.50;;;;;;4940332;28;20497;-29
2023/10/17 10:02:02;;;;;;;2.42;1.02;;;;;;;;;;4937930;29;20058;-28
2023/10/17 10:04:29;;;;;;;1.40;1.00;;;;;;;;;;4928895;29;20070;-29
2023/10/17 10:07:17;;;;;;;2.53;1.00;;;20.90;78.30;;;;;;4936939;29;20126;-29
2023/10/17 10:09:46;;;;;;;6.13;1.00;;;20.70;76.50;;;;;;4936327;29;20102;-29
2023/10/17 10:12:14;;;;;;;1.50;0.88;;;21.30;78.90;;;;;;4937173;29;20075;-29
2023/10/17 10:14:44;;;;;;;2.45;1.00;;;19.90;78.00;;;;;;4937100;29;20472;-29
2023/10/17 10:17:13;;;;;;;1.00;0.90;;;20.50;78.50;;;;;;4936987;29;20095;-29
2023/10/17 10:20:02;;;;;;;1.50;1.30;;;20.10;73.20;;;;;;4937034;29;20075;-29
2023/10/17 10:22:54;;;;;;;1.55;1.10;;;20.60;61.40;;;;;;4936422;29;20061;-29
2023/10/17 10:25:22;;;;;;;3.70;1.02;;;20.30;74.60;;;;;;4935778;29;20450;-29
2023/10/17 10:27:50;;;;;;;1.77;1.10;;;19.80;78.20;;;;;;4933281;29;21614;-27
2023/10/17 10:30:34;;;;;;;3.22;1.10;;;20.60;75.10;;;;;;4936038;29;20134;-28
2023/10/17 10:33:02;;;;;;;3.95;1.25;;;;;;;;;;4933150;29;20120;-28
2023/10/17 10:35:31;;;;;;;3.45;1.45;;;21.60;61.60;;;;;;4952145;29;20103;-29
2023/10/17 10:37:59;;;;;;;2.78;1.38;;;20.40;61.50;;;;;;4936674;29;20428;-30
2023/10/17 10:40:32;;;;;;;3.40;1.30;;;20.50;61.20;;;;;;4936769;29;20563;-29
2023/10/17 10:43:01;;;;;;;4.03;1.40;;;20.50;61.30;;;;;;4936800;29;20113;-27
2023/10/17 10:45:35;;;;;;;6.63;1.27;;;20.70;79.40;;;;;;4936782;29;20128;-30
2023/10/17 10:48:04;;;;;;;2.58;1.20;;;20.50;61.40;;;;;;4937041;29;20062;-30
2023/10/17 10:50:33;;;;;;;4.53;1.50;;;20.50;63.20;;;;;;4937023;29;20054;-30
2023/10/17 10:53:04;;;;;;;3.65;1.42;;;21.10;79.10;;;;;;4937031;29;20078;-30
2023/10/17 10:55:32;;;;;;;3.67;1.40;;;20.10;68.90;;;;;;4936801;29;20058;-30
2023/10/17 10:58:03;;;;;;;4.70;1.80;;;20.40;79.10;;;;;;4936462;29;20075;-30
2023/10/17 11:00:31;;;;;;;2.17;1.50;;;20.70;79.30;;;;;;4936921;29;20497;-30
2023/10/17 11:02:59;;;;;;;2.83;1.65;;;20.10;75.60;;;;;;4936965;29;20047;-30
2023/10/17 11:05:26;;;;;;;5.43;2.00;;;;;;;;;;4936266;29;20067;-29
2023/10/17 11:08:02;;;;;;;4.43;1.67;;;19.50;76.50;;;;;;4936410;29;20047;-27
2023/10/17 11:10:31;;;;;;;4.80;1.52;;;19.90;79.00;;;;;;4936949;29;20119;-27
2023/10/17 11:12:59;;;;;;;5.50;1.70;;;20.00;70.30;;;;;;4936477;29;20398;-27
2023/10/17 11:15:30;;;;;;;3.28;1.98;;;19.90;79.00;;;;;;4936474;29;20119;-27
2023/10/17 11:18:06;;;;;;;3.65;1.70;;;20.70;79.90;;;;;;4936048;29;20051;-27
2023/10/17 11:20:33;;;;;;;5.43;1.70;;;;;;;;;;4936796;29;20110;-27
2023/10/17 11:23:02;;;;;;;4.88;1.85;;;19.20;68.00;;;;;;4936411;29;20052;-28
2023/10/17 11:25:31;;;;;;;4.70;1.42;;;20.40;79.70;;;;;;4935611;29;20048;-27
2023/10/17 11:28:06;;;;;;;4.15;1.80;;;20.30;61.40;;;;;;4935251;29;20050;-28
2023/10/17 11:30:34;;;;;;;3.80;1.50;;;20.30;78.80;;;;;;4934281;29;20497;-27
2023/10/17 11:33:04;;;;;;;4.38;1.50;;;20.20;61.40;;;;;;4936146;29;20066;-27
2023/10/17 11:35:31;;;;;;;3.80;1.40;;;20.30;70.80;;;;;;4936031;29;20044;-27
2023/10/17 11:37:58;;;;;;;5.72;1.65;;;21.10;63.20;;;;;;4934812;29;20051;-27
2023/10/17 11:40:44;;;;;;;3.42;1.50;;;20.40;79.00;;;;;;4935742;29;20502;-26
2023/10/17 11:43:17;;;;;;;4.97;1.35;;;20.20;79.10;;;;;;4935882;29;20099;-27
2023/10/17 11:45:43;;;;;;;3.03;1.63;;;19.50;78.60;;;;;;4935834;29;20142;-27
2023/10/17 11:48:29;;;;;;;2.00;1.48;;;19.70;79.00;;;;;;4934729;29;20127;-27
2023/10/17 11:51:07;;;;;;;3.55;1.40;;;19.80;79.70;;;;;;4933846;29;20087;-26
2023/10/17 11:53:34;;;;;;;2.80;1.40;;;20.40;79.20;;;;;;4934061;29;20891;-26
2023/10/17 11:56:01;;;;;;;4.25;1.63;;;20.50;66.90;;;;;;4938721;29;20422;-27
2023/10/17 11:58:33;;;;;;;3.95;1.40;;;19.90;79.70;;;;;;4944060;29;20059;-27
2023/10/17 12:01:00;;;;;;;3.05;1.38;;;19.70;79.30;;;;;;4935885;29;20056;-27
2023/10/17 12:03:27;;;;;;;2.20;1.30;;;20.40;69.40;;;;;;4935331;29;20052;-27
2023/10/17 12:05:54;;;;;;;2.85;1.40;;;20.10;79.40;;;;;;4935545;29;20048;-27
2023/10/17 12:08:29;;;;;;;2.92;1.52;;;19.80;67.10;;;;;;4935294;29;20058;-27
2023/10/17 12:10:56;;;;;;;2.63;1.30;;;20.20;79.10;;;;;;4935381;29;20489;-28
2023/10/17 12:13:26;;;;;;;2.83;1.30;;;;;;;;;;4935615;29;20325;-28
2023/10/17 12:15:56;;;;;;;3.45;1.48;;;19.90;61.80;;;;;;4935318;29;20498;-28
2023/10/17 12:18:25;;;;;;;6.15;1.60;;;19.90;61.80;;;;;;4934925;29;20103;-28
2023/10/17 12:20:55;;;;;;;3.00;1.27;;;;;;;;;;4935438;29;20478;-27
2023/10/17 12:23:29;;;;;;;1.90;1.40;;;19.60;68.20;;;;;;4935111;29;20047;-27
2023/10/17 12:25:58;;;;;;;4.18;1.38;;;20.10;79.70;;;;;;4934920;29;20054;-27
2023/10/17 12:28:26;;;;;;;1.98;1.30;;;20.50;79.60;;;;;;4934968;29;20079;-27
2023/10/17 12:30:54;;;;;;;3.67;1.30;;;20.10;79.80;;;;;;4935200;29;20083;-27
2023/10/17 12:33:23;;;;;;;1.85;1.20;;;;;;;;;;4935070;29;20048;-28
2023/10/17 12:35:51;;;;;;;1.50;1.30;;;19.00;68.20;;;;;;4934090;29;20139;-29
2023/10/17 12:38:25;;;;;;;1.80;1.23;;;;;;;;;;4935014;29;20055;-28
2023/10/17 12:40:53;;;;;;;2.20;1.42;;;;;;;;;;4935024;29;20056;-28
2023/10/17 12:43:19;;;;;;;1.48;1.27;;;20.60;78.60;;;;;;4935086;29;20043;-29
2023/10/17 12:45:47;;;;;;;2.03;1.42;;;;;;;;;;4934428;29;20115;-28
2023/10/17 12:48:15;;;;;;;1.50;1.20;;;20.10;79.90;;;;;;4934434;29;20047;-29
2023/10/17 12:50:44;;;;;;;2.25;1.40;;;;;;;;;;4934831;29;20583;-29
2023/10/17 12:53:11;;;;;;;1.45;1.10;;;20.10;79.70;;;;;;4935114;29;20099;-30
2023/10/17 12:55:39;;;;;;;1.80;1.27;;;20.70;79.90;;;;;;4934671;29;20048;-30
2023/10/17 12:58:07;;;;;;;1.80;1.20;;;20.00;64.50;;;;;;4934543;29;20083;-30
2023/10/17 13:00:34;;;;;;;1.65;1.20;;;19.70;79.60;;;;;;4934865;29;20052;-30
2023/10/17 13:03:01;;;;;;;2.75;1.48;;;20.10;65.00;;;;;;4934108;29;20052;-30
2023/10/17 13:05:29;;;;;;;3.35;1.30;;;20.60;80.30;;;;;;4934383;29;20051;-31
2023/10/17 13:07:56;;;;;;;2.05;1.38;;;19.70;75.90;;;;;;4934071;29;20123;-30
2023/10/17 13:10:23;;;;;;;1.88;1.20;;;;;;;;;;4934683;29;20463;-30
2023/10/17 13:12:50;;;;;;;2.13;1.35;;;;;;;;;;4934774;29;20107;-30
2023/10/17 13:15:17;;;;;;;7.68;1.63;;;20.70;80.40;;;;;;4934806;29;20055;-27
2023/10/17 13:17:44;;;;;;;3.38;1.20;;;20.30;73.50;;;;;;4934199;29;20095;-27
2023/10/17 13:20:13;;;;;;;3.20;1.30;;;20.30;79.20;;;;;;4934205;29;20058;-27
2023/10/17 13:22:46;;;;;;;2.65;1.20;;;20.30;70.40;;;;;;4933589;29;20059;-28
2023/10/17 13:25:13;;;;;;;3.10;1.20;;;20.00;79.80;;;;;;4932454;29;20055;-26
2023/10/17 13:27:40;;;;;;;3.10;1.20;;;19.90;79.40;;;;;;4931291;29;20055;-27
2023/10/17 13:30:09;;;;;;;2.90;1.30;;;20.00;61.60;;;;;;4934211;29;20052;-30
2023/10/17 13:32:36;;;;;;;1.25;1.13;;;;;;;;;;4934120;29;20051;-30
2023/10/17 13:35:03;;;;;;;2.63;1.30;;;20.20;79.40;;;;;;4934453;29;20106;-27
2023/10/17 13:37:30;;;;;;;1.70;1.20;;;;;;;;;;4936894;29;20131;-29
2023/10/17 13:39:58;;;;;;;3.40;1.38;;;19.70;79.20;;;;;;4937762;29;20074;-27
2023/10/17 13:42:27;;;;;;;1.15;1.00;;;18.90;78.40;;;;;;4937661;29;20084;-27
2023/10/17 13:44:54;;;;;;;1.45;0.95;;;;;;;;;;4937544;29;20066;-30
2023/10/17 13:47:21;;;;;;;1.80;1.20;;;20.70;79.70;;;;;;4937195;29;20413;-27
2023/10/17 13:49:49;;;;;;;1.23;1.10;;;;;;;;;;4937527;29;20054;-27
2023/10/17 13:52:17;;;;;;;1.73;1.05;;;19.90;79.30;;;;;;4937495;29;20051;-27
2023/10/17 13:54:44;;;;;;;1.83;1.10;;;19.80;79.10;;;;;;4937353;29;20043;-26
2023/10/17 13:57:12;;;;;;;1.73;1.17;;;20.20;79.30;;;;;;4938144;29;20086;-26
2023/10/17 13:59:47;;;;;;;1.42;1.15;;;19.60;78.70;;;;;;4936320;29;20099;-27
2023/10/17 14:02:17;;;;;;;1.35;1.02;;;;;;;;;;4937526;29;20815;-29
2023/10/17 14:04:45;;;;;;;1.85;1.10;;;19.50;74.90;;;;;;4937417;29;20050;-26
2023/10/17 14:07:12;;;;;;;1.98;1.10;;;20.70;79.20;;;;;;4936969;29;20055;-27
2023/10/17 14:09:40;;;;;;;1.55;1.00;;;19.40;71.80;;;;;;4937353;29;20054;-27
2023/10/17 14:12:08;;;;;;;1.98;1.20;;;;;;;;;;4937327;29;20052;-30
2023/10/17 14:14:37;;;;;;;1.63;1.10;;;19.30;76.20;;;;;;4937116;29;20044;-26
2023/10/17 14:17:04;;;;;;;1.40;1.10;;;19.80;78.80;;;;;;4937004;29;20413;-26
2023/10/17 14:19:37;;;;;;;1.33;1.10;;;19.30;78.90;;;;;;4936890;29;20074;-27
2023/10/17 14:22:08;;;;;;;1.52;1.10;;;20.30;74.50;;;;;;4935979;29;20522;-27
2023/10/17 14:25:00;;;;;;;1.45;1.08;;;;;;;;;;4936973;29;20064;-30
2023/10/17 14:27:29;;;;;;;1.17;0.95;;;19.80;78.80;;;;;;4934961;29;20706;-26
2023/10/17 14:29:59;;;;;;;2.58;1.20;;;19.90;66.00;;;;;;4936739;29;20505;-27
2023/10/17 14:32:26;;;;;;;2.05;1.05;;;20.20;64.10;;;;;;4937026;29;20052;-28
2023/10/17 14:34:53;;;;;;;1.33;1.10;;;19.40;78.90;;;;;;4936505;29;20143;-27
2023/10/17 14:37:23;;;;;;;2.25;1.10;;;;;;;;;;4933762;29;20499;-27
2023/10/17 14:39:50;;;;;;;1.60;0.90;;;;;;;;;;4936966;29;20060;-29
2023/10/17 14:42:18;;;;;;;1.13;0.90;;;;;;;;;;4937071;29;20087;-29
2023/10/17 14:44:45;;;;;;;1.88;1.00;;;19.50;78.80;;;;;;4936874;29;20394;-29
2023/10/17 14:47:16;;;;;;;1.20;0.90;;;19.90;61.40;;;;;;4936391;29;20052;-26
2023/10/17 14:49:43;;;;;;;1.42;1.00;;;19.40;79.20;;;;;;4937134;29;20485;-29